»·PEaware :: ENY6780 KSAN-KBUR

ENY6780 :: KSAN-KBUR

FLIGHT INFORMATION

Flight Status: Arrived
Operator: Unknown
More flights by this operator :: More flights under this callsign
Pilot: Anonymous 10623 (10623)
Aircraft: EMBRAER ERJ-135/140
(E135)
More flights by this aircraft type
Origin: KSAN San Diego Intl-Lindbergh
United States
Destination: KBUR Bob Hope-Burbank
United States
More flights between these airports :: More routes between these airports
Route: +CWARD2 LAX SILEX
File this flight plan on PilotEdge
Remarks: TEC route SANP14R
Altitude:
(Current/Filed)
10,000ft
Speed:
(Current/Filed)
260kts
Departed: 17-Nov-20 02:28 PM
Arrived: 17-Nov-20 03:02 PM
Distance/Time
Traveled:
105nm/0:33
Distance/Time
To Go:
Arrived

Flight Plot

Page will automatically refresh every two minutes.

Flight plan parsing failed; only flown route is shown


Map Options




Map Legend


Flown Route
Filed Route
Departure Airport
Arrival Airport
Navaid (VOR, NDB)
Fix

Horizontal Profiles

Position Reports

Time Latitude Longitude Heading Altitude Ground
Speed
17-Nov-20 14:05 32.732933 -117.201648 92 24ft 0kts
17-Nov-20 14:06 32.732933 -117.201648 92 24ft 0kts
17-Nov-20 14:07 32.732933 -117.201648 92 24ft 0kts
17-Nov-20 14:08 32.732933 -117.201648 92 24ft 0kts
17-Nov-20 14:09 32.732933 -117.201648 92 24ft 0kts
17-Nov-20 14:09 32.732933 -117.201648 92 24ft 0kts
17-Nov-20 14:11 32.732933 -117.201648 92 24ft 0kts
17-Nov-20 14:12 32.732933 -117.201648 92 24ft 0kts
17-Nov-20 14:13 32.732933 -117.201648 92 24ft 0kts
17-Nov-20 14:13 32.732933 -117.201648 92 24ft 0kts
17-Nov-20 14:14 32.732933 -117.201648 92 24ft 0kts
17-Nov-20 14:16 32.732933 -117.201648 92 24ft 0kts
17-Nov-20 14:16 32.732939 -117.201825 92 24ft 2kts
17-Nov-20 14:17 32.732938 -117.202403 43 24ft 1kts
17-Nov-20 14:18 32.732794 -117.202404 328 24ft 0kts
17-Nov-20 14:19 32.732794 -117.202404 328 24ft 0kts
17-Nov-20 14:20 32.732904 -117.202488 323 24ft 0kts
17-Nov-20 14:21 32.734470 -117.202594 15 24ft 6kts
17-Nov-20 14:22 32.734707 -117.198667 105 24ft 22kts
17-Nov-20 14:23 32.732769 -117.190680 106 24ft 27kts
17-Nov-20 14:24 32.731029 -117.183373 105 24ft 21kts
17-Nov-20 14:25 32.729759 -117.178141 105 24ft 13kts
17-Nov-20 14:26 32.730479 -117.176998 285 24ft 3kts
17-Nov-20 14:27 32.735725 -117.202371 288 1169ft 161kts
17-Nov-20 14:28 32.765351 -117.255404 303 4720ft 242kts
17-Nov-20 14:29 32.803999 -117.324182 304 9609ft 266kts
17-Nov-20 14:30 32.858731 -117.410114 304 9938ft 349kts
17-Nov-20 14:31 32.917236 -117.501020 304 9936ft 343kts
17-Nov-20 14:32 32.975128 -117.591205 304 9937ft 341kts
17-Nov-20 14:33 33.032542 -117.680864 303 9936ft 339kts
17-Nov-20 14:34 33.097208 -117.763401 315 9932ft 343kts
17-Nov-20 14:35 33.169788 -117.837389 316 9997ft 341kts
17-Nov-20 14:36 33.258062 -117.877824 345 10007ft 348kts
17-Nov-20 14:37 33.339608 -117.898181 345 10001ft 327kts
17-Nov-20 14:38 33.415210 -117.939039 318 9068ft 296kts
17-Nov-20 14:39 33.479175 -117.999281 319 7228ft 289kts
17-Nov-20 14:40 33.541217 -118.058047 319 6030ft 275kts
17-Nov-20 14:41 33.600818 -118.114615 319 6021ft 272kts
17-Nov-20 14:42 33.659944 -118.170856 319 6017ft 270kts
17-Nov-20 14:43 33.718707 -118.226844 319 6018ft 269kts
17-Nov-20 14:44 33.776204 -118.281717 319 6017ft 269kts
17-Nov-20 14:45 33.833917 -118.336899 319 6019ft 269kts
17-Nov-20 14:46 33.892093 -118.392626 319 6019ft 268kts
17-Nov-20 14:47 33.951889 -118.446340 320 5872ft 267kts
17-Nov-20 14:48 34.008133 -118.499689 320 5009ft 245kts
17-Nov-20 14:49 34.061309 -118.550363 320 5008ft 243kts
17-Nov-20 14:50 34.114376 -118.600805 320 5014ft 241kts
17-Nov-20 14:51 34.167125 -118.650545 320 5024ft 240kts
17-Nov-20 14:52 34.217005 -118.700834 290 5018ft 215kts
17-Nov-20 14:53 34.187476 -118.724940 117 4032ft 171kts
17-Nov-20 14:54 34.201757 -118.674681 94 4041ft 173kts
17-Nov-20 14:55 34.200712 -118.617928 93 4038ft 172kts
17-Nov-20 14:56 34.200182 -118.560862 93 3869ft 168kts
17-Nov-20 14:57 34.199635 -118.507745 91 3069ft 149kts
17-Nov-20 14:58 34.199410 -118.460862 93 2320ft 139kts
17-Nov-20 14:59 34.198449 -118.413923 94 1550ft 139kts
17-Nov-20 15:00 34.197998 -118.369059 94 849ft 128kts
17-Nov-20 15:01 34.197661 -118.352106 93 783ft 6kts
17-Nov-20 15:02 34.196774 -118.351074 179 783ft 0kts
17-Nov-20 15:03 34.196774 -118.351074 179 783ft 0kts
17-Nov-20 15:04 34.196774 -118.351074 179 783ft 0kts

Navigation Log

Ident Type
Flight plan parsing failed, navigation log unavailable